Milwaukee, WI (53207)

6:24 PM CDT op 01 september 2014 (GMT -0500)
E Layton | Change Station
CLOSE
Current Station
Persoonlijk weerstation
Location: Cudahy, WI
Geometrische hoogte: 712 ft
Nabije weerstations
Actief advies: Special Statement

Hoogte 712 ft 42.96 °N, 87.86 °W | Updated 3 seconds ago

Mostly Cloudy
Merendeels bewolkt
78.3 °F
Voelt als 80 °F
N
0.0
Wind Variabel Wind van west
Gusts 3.0 mijl/u

Vandaag
Hoog -- | Laag -- °F
--% Kans op neerslag
Gisteren
Hoog -- | Laag -- °F
Precip. -- inches
6:16 AM 7:26 PM
Wassende halvemaan, 45% visible
Druk 29.72 inches
Zicht 10.0 mijlen
Wolken Gering 4200 ft
Licht bewolkt 5500 ft
Merendeels bewolkt 25000 ft
Warmteindex 80 °F
Dauwpunt 66 °F
Vochtigheid 65%
Neerslag 0.02 inches
Dikte sneeuw Niet beschikbaar.
UV 1 van de 12
Pollen 6.20 van de 12
Ozon Goed
PM2.5 Goed
Flu Activity Niet beschikbaar.
METAR KMKE 012252Z 26011KT 10SM FEW042 SCT055 BKN250 27/17 A2973 RMK AO2 SLP063 T02670172 $

More Conditions Fewer Conditions

Druk 29.72 inches
Zicht 10.0 mijlen
Wolken Gering 4200 ft
Licht bewolkt 5500 ft
Merendeels bewolkt 25000 ft
Warmteindex 80 °F
Dauwpunt 66 °F
Vochtigheid 65%
Neerslag 0.02 inches
Dikte sneeuw Niet beschikbaar.
UV 1 van de 12
Pollen 6.20 van de 12
Ozon Goed
PM2.5 Goed
Flu Activity Niet beschikbaar.
METAR KMKE 012252Z 26011KT 10SM FEW042 SCT055 BKN250 27/17 A2973 RMK AO2 SLP063 T02670172 $

More Conditions Fewer Conditions

10-Day Weather Forecast

Almanac

Astronomie

Sep. 01, 2014 Opkomst Ondergang
Werkelijke tijd 6:16 AM CDT 7:26 PM CDT
Burgerlijke schemering 5:46 AM CDT 7:55 PM CDT
Nautische schemering 5:11 AM CDT 8:30 PM CDT
Astronomische schemering 4:34 AM CDT 9:06 PM CDT
Maan 1:11 PM CDT 11:16 PM CDT
Golflengte van het zichtbare licht 14h 08m
Daglengte
13h 10m
Tomorrow will be 2m 49s shorter.
Wassende halvemaan, 45% of the Moon is Illuminated
Vandaag
Wassende halvemaan
sep 2
Eerste kwartier
sep 8
Volle maan
sep 15
Laatste kwartier
sep 24
Nieuw

Extremen vandaag

State Highs State Lows

Community

WunderPhotos

Upload Photos

1,749,430 foto’s ge-upload!

Nearby

Luchtkwaliteit

  Luchtkwaliteit LK-index Verontreinigende stof
Gisteren Goed
OZONE
Gisteren Goed
PM10
Actueel Goed
OZONE
Actueel Goed
PM2.5
maandag Goed
OZONE
maandag Goed
PM2.5
dinsdag Goed
OZONE
dinsdag Goed
PM2.5

Dikte sneeuw

Station Depth Geometrische hoogte
Er is geen verse sneeuw gerapporteerd.

Aardbevingen

Stad Distance Mag. Time & Date
No recent earthquake activity has been reported nearby.
Minimum magnitude displayed is 2.5.

Watertemperatuur langs de kust

Plaats Temperatuur
Geen meldingen van stations

Nabije weerstations